Ana Sayfa
METAR-TAF:

METAR-TAF

Havaalanları :

Cherokee County Airport

Jacksonville, Teksas, Amerika Birleşik Devletleri

Enlem: 31-52-09N, Boylam: 095-13-02W, yükseklik: 206 m

Güncel hava durumu gözlemi

Rapor saat 18:15 UTC de 28 dakika önce yapıldı.
Rüzgar güneydan 10 kt ve 15 kt'a kadar ani rüzgarlar
Sıcaklık 31°C
Nem 59%
Basınç 1011 hPa
Görüş mesafesi: 16.1 km
2800 ft yükseklikte parçalı bulutlu

METAR: KJSO 191815Z AUTO 19010G15KT 10SM SCT028 31/22 A2986 RMK AO2 T03080230

Saat: 13:43 (18:43 UTC)


TAF: eksik

4.000'den fazla havaalanı için hava durumu gözlemleri ve tahminleri (METAR ve TAF raporları).

Kullanılabilir istasyonlar harita üzerinde sarı ve kırmızı noktalarla gösterilir.

İstasyonun adını görmek için fareyi noktanın üzerinde gezdirin.

Sonrasında hava gözlem ve tahminlerini görmek için tıklayın.

Haritayı değiştirmek için: yaklaştırmak için siyah artı işaretli yeşil düğmeye ve uzaklaştırmak için de eksi işaretli düğmeye hızla tıklayın; bitişik haritalar için yeşil okları kullanın.


METAR-TAF: